sensor_id;sensor_type;location;lat;lon;timestamp;pressure;altitude;pressure_sealevel;temperature;humidity
73151;BME280;61354;50.758;6.106;2023-04-07T00:00:29;99056.94;;;7.50;100.00
73151;BME280;61354;50.758;6.106;2023-04-07T00:02:55;99060.56;;;7.51;100.00
73151;BME280;61354;50.758;6.106;2023-04-07T00:05:21;99053.59;;;7.44;100.00
73151;BME280;61354;50.758;6.106;2023-04-07T00:07:47;99050.84;;;7.44;100.00
73151;BME280;61354;50.758;6.106;2023-04-07T00:10:13;99052.44;;;7.45;100.00
73151;BME280;61354;50.758;6.106;2023-04-07T00:12:39;99046.47;;;7.43;100.00
73151;BME280;61354;50.758;6.106;2023-04-07T00:15:05;99055.78;;;7.39;100.00
73151;BME280;61354;50.758;6.106;2023-04-07T00:17:30;99051.06;;;7.39;100.00
73151;BME280;61354;50.758;6.106;2023-04-07T00:19:56;99048.63;;;7.38;100.00
73151;BME280;61354;50.758;6.106;2023-04-07T00:22:22;99053.53;;;7.32;100.00
73151;BME280;61354;50.758;6.106;2023-04-07T00:24:47;99050.91;;;7.36;100.00
73151;BME280;61354;50.758;6.106;2023-04-07T00:27:13;99048.16;;;7.36;100.00
73151;BME280;61354;50.758;6.106;2023-04-07T00:29:38;99045.41;;;7.36;100.00
73151;BME280;61354;50.758;6.106;2023-04-07T00:32:04;99040.41;;;7.29;100.00
73151;BME280;61354;50.758;6.106;2023-04-07T00:34:30;99037.09;;;7.36;100.00
73151;BME280;61354;50.758;6.106;2023-04-07T00:36:55;99051.81;;;7.28;100.00
73151;BME280;61354;50.758;6.106;2023-04-07T00:39:21;99036.38;;;7.27;100.00
73151;BME280;61354;50.758;6.106;2023-04-07T00:41:46;99041.34;;;7.33;100.00
73151;BME280;61354;50.758;6.106;2023-04-07T00:44:12;99040.88;;;7.31;100.00
73151;BME280;61354;50.758;6.106;2023-04-07T00:46:39;99041.34;;;7.33;100.00
73151;BME280;61354;50.758;6.106;2023-04-07T00:49:05;99038.44;;;7.30;100.00
73151;BME280;61354;50.758;6.106;2023-04-07T00:51:32;99035.81;;;7.33;100.00
73151;BME280;61354;50.758;6.106;2023-04-07T00:53:59;99038.94;;;7.32;100.00
73151;BME280;61354;50.758;6.106;2023-04-07T00:56:26;99040.22;;;7.34;100.00
73151;BME280;61354;50.758;6.106;2023-04-07T00:58:51;99035.81;;;7.33;100.00
73151;BME280;61354;50.758;6.106;2023-04-07T01:01:31;99036.97;;;7.32;100.00
73151;BME280;61354;50.758;6.106;2023-04-07T01:04:04;99035.50;;;7.35;100.00
73151;BME280;61354;50.758;6.106;2023-04-07T01:06:36;99043.78;;;7.35;100.00
73151;BME280;61354;50.758;6.106;2023-04-07T01:09:22;99037.78;;;7.33;100.00
73151;BME280;61354;50.758;6.106;2023-04-07T01:12:06;99036.63;;;7.34;100.00
73151;BME280;61354;50.758;6.106;2023-04-07T01:14:46;99033.88;;;7.34;100.00
73151;BME280;61354;50.758;6.106;2023-04-07T01:17:16;99033.88;;;7.34;100.00
73151;BME280;61354;50.758;6.106;2023-04-07T01:20:00;99041.16;;;7.38;100.00
73151;BME280;61354;50.758;6.106;2023-04-07T01:22:39;99035.81;;;7.33;100.00
73151;BME280;61354;50.758;6.106;2023-04-07T01:30:57;99034.00;;;7.37;100.00
73151;BME280;61354;50.758;6.106;2023-04-07T01:33:25;99034.47;;;7.39;100.00
73151;BME280;61354;50.758;6.106;2023-04-07T01:35:54;99032.75;;;7.35;100.00
73151;BME280;61354;50.758;6.106;2023-04-07T01:38:21;99040.47;;;7.41;100.00
73151;BME280;61354;50.758;6.106;2023-04-07T01:40:48;99030.56;;;7.40;100.00
73151;BME280;61354;50.758;6.106;2023-04-07T01:43:14;99037.09;;;7.36;100.00
73151;BME280;61354;50.758;6.106;2023-04-07T01:45:41;99038.25;;;7.35;100.00
73151;BME280;61354;50.758;6.106;2023-04-07T01:48:08;99040.81;;;7.40;100.00
73151;BME280;61354;50.758;6.106;2023-04-07T01:50:35;99038.25;;;7.35;100.00
73151;BME280;61354;50.758;6.106;2023-04-07T01:53:02;99042.97;;;7.34;100.00
73151;BME280;61354;50.758;6.106;2023-04-07T01:55:28;99035.94;;;7.37;100.00
73151;BME280;61354;50.758;6.106;2023-04-07T01:57:54;99045.41;;;7.36;100.00
73151;BME280;61354;50.758;6.106;2023-04-07T02:00:19;99041.03;;;7.35;100.00
73151;BME280;61354;50.758;6.106;2023-04-07T02:02:48;99045.00;;;7.25;100.00
73151;BME280;61354;50.758;6.106;2023-04-07T02:05:17;99040.28;;;7.26;100.00
73151;BME280;61354;50.758;6.106;2023-04-07T02:07:58;99045.25;;;7.32;100.00
73151;BME280;61354;50.758;6.106;2023-04-07T02:10:27;99044.66;;;7.27;100.00
73151;BME280;61354;50.758;6.106;2023-04-07T02:12:53;99045.78;;;7.26;100.00
73151;BME280;61354;50.758;6.106;2023-04-07T02:15:21;99041.09;;;7.26;100.00
73151;BME280;61354;50.758;6.106;2023-04-07T02:17:51;99048.09;;;7.23;100.00
73151;BME280;61354;50.758;6.106;2023-04-07T02:20:19;99049.72;;;7.25;100.00
73151;BME280;61354;50.758;6.106;2023-04-07T02:22:45;99050.38;;;7.21;100.00
73151;BME280;61354;50.758;6.106;2023-04-07T02:25:25;99056.38;;;7.23;100.00
73151;BME280;61354;50.758;6.106;2023-04-07T02:27:51;99053.84;;;7.18;100.00
73151;BME280;61354;50.758;6.106;2023-04-07T02:30:17;99057.41;;;7.19;100.00
73151;BME280;61354;50.758;6.106;2023-04-07T02:32:43;99052.81;;;7.23;100.00
73151;BME280;61354;50.758;6.106;2023-04-07T02:35:09;99053.34;;;7.16;100.00
73151;BME280;61354;50.758;6.106;2023-04-07T02:37:35;99046.34;;;7.19;100.00
73151;BME280;61354;50.758;6.106;2023-04-07T02:40:02;99047.22;;;7.11;100.00
73151;BME280;61354;50.758;6.106;2023-04-07T02:42:28;99051.06;;;7.18;100.00
73151;BME280;61354;50.758;6.106;2023-04-07T02:44:53;99044.59;;;7.14;100.00
73151;BME280;61354;50.758;6.106;2023-04-07T02:47:19;99051.75;;;7.15;100.00
73151;BME280;61354;50.758;6.106;2023-04-07T02:49:44;99051.59;;;7.12;100.00
73151;BME280;61354;50.758;6.106;2023-04-07T02:52:11;99046.44;;;7.10;100.00
73151;BME280;61354;50.758;6.106;2023-04-07T02:54:36;99054.84;;;7.14;100.00
73151;BME280;61354;50.758;6.106;2023-04-07T02:57:02;99057.41;;;7.19;100.00
73151;BME280;61354;50.758;6.106;2023-04-07T02:59:27;99063.44;;;7.12;100.00
73151;BME280;61354;50.758;6.106;2023-04-07T03:01:53;99058.63;;;7.09;100.00
73151;BME280;61354;50.758;6.106;2023-04-07T03:04:18;99059.94;;;7.03;100.00
73151;BME280;61354;50.758;6.106;2023-04-07T03:06:44;99056.38;;;7.03;100.00
73151;BME280;61354;50.758;6.106;2023-04-07T03:09:10;99056.03;;;7.04;100.00
73151;BME280;61354;50.758;6.106;2023-04-07T03:11:36;99059.94;;;7.03;100.00
73151;BME280;61354;50.758;6.106;2023-04-07T03:14:01;99056.84;;;7.05;100.00
73151;BME280;61354;50.758;6.106;2023-04-07T03:16:27;99055.25;;;7.04;100.00
73151;BME280;61354;50.758;6.106;2023-04-07T03:18:52;99062.38;;;7.05;100.00
73151;BME280;61354;50.758;6.106;2023-04-07T03:21:18;99054.44;;;7.03;100.00
73151;BME280;61354;50.758;6.106;2023-04-07T03:23:43;99060.97;;;6.98;100.00
73151;BME280;61354;50.758;6.106;2023-04-07T03:26:09;99059.00;;;6.99;100.00
73151;BME280;61354;50.758;6.106;2023-04-07T03:28:35;99056.75;;;7.01;100.00
73151;BME280;61354;50.758;6.106;2023-04-07T03:31:01;99054.34;;;6.91;100.00
73151;BME280;61354;50.758;6.106;2023-04-07T03:33:26;99057.41;;;6.98;100.00
73151;BME280;61354;50.758;6.106;2023-04-07T03:35:52;99058.88;;;6.95;100.00
73151;BME280;61354;50.758;6.106;2023-04-07T03:38:18;99054.16;;;6.96;100.00
73151;BME280;61354;50.758;6.106;2023-04-07T03:40:43;99057.84;;;7.00;100.00
73151;BME280;61354;50.758;6.106;2023-04-07T03:43:09;99062.44;;;6.96;100.00
73151;BME280;61354;50.758;6.106;2023-04-07T03:45:38;99054.72;;;6.89;100.00
73151;BME280;61354;50.758;6.106;2023-04-07T03:48:04;99072.34;;;6.97;100.00
73151;BME280;61354;50.758;6.106;2023-04-07T03:50:29;99066.25;;;6.83;100.00
73151;BME280;61354;50.758;6.106;2023-04-07T03:52:55;99062.19;;;6.89;100.00
73151;BME280;61354;50.758;6.106;2023-04-07T03:55:21;99055.97;;;6.92;100.00
73151;BME280;61354;50.758;6.106;2023-04-07T03:57:46;99059.88;;;6.91;100.00
73151;BME280;61354;50.758;6.106;2023-04-07T04:00:13;99061.69;;;6.87;100.00
73151;BME280;61354;50.758;6.106;2023-04-07T04:02:38;99061.69;;;6.87;100.00
73151;BME280;61354;50.758;6.106;2023-04-07T04:05:04;99064.25;;;6.92;100.00
73151;BME280;61354;50.758;6.106;2023-04-07T04:07:29;99055.97;;;6.92;100.00
73151;BME280;61354;50.758;6.106;2023-04-07T04:09:55;99063.59;;;6.95;100.00
73151;BME280;61354;50.758;6.106;2023-04-07T04:12:21;99052.41;;;6.91;100.00
73151;BME280;61354;50.758;6.106;2023-04-07T04:14:46;99064.81;;;6.85;100.00
73151;BME280;61354;50.758;6.106;2023-04-07T04:17:12;99057.66;;;6.84;100.00
73151;BME280;61354;50.758;6.106;2023-04-07T04:19:37;99058.28;;;6.90;100.00
73151;BME280;61354;50.758;6.106;2023-04-07T04:22:03;99065.88;;;6.93;100.00
73151;BME280;61354;50.758;6.106;2023-04-07T04:24:28;99071.13;;;6.86;100.00
73151;BME280;61354;50.758;6.106;2023-04-07T04:26:54;99067.41;;;6.82;100.00
73151;BME280;61354;50.758;6.106;2023-04-07T04:29:21;99070.47;;;6.89;100.00
73151;BME280;61354;50.758;6.106;2023-04-07T04:31:46;99074.88;;;6.81;100.00
73151;BME280;61354;50.758;6.106;2023-04-07T04:34:12;99070.19;;;6.82;100.00
73151;BME280;61354;50.758;6.106;2023-04-07T04:36:38;99076.66;;;6.86;100.00
73151;BME280;61354;50.758;6.106;2023-04-07T04:39:05;99068.81;;;6.88;100.00
73151;BME280;61354;50.758;6.106;2023-04-07T04:41:30;99077.09;;;6.88;100.00
73151;BME280;61354;50.758;6.106;2023-04-07T04:43:56;99076.78;;;6.89;100.00
73151;BME280;61354;50.758;6.106;2023-04-07T04:46:22;99072.06;;;6.90;100.00
73151;BME280;61354;50.758;6.106;2023-04-07T04:48:47;99075.50;;;6.87;100.00
73151;BME280;61354;50.758;6.106;2023-04-07T04:51:13;99077.59;;;6.90;100.00
73151;BME280;61354;50.758;6.106;2023-04-07T04:53:38;99081.00;;;6.87;100.00
73151;BME280;61354;50.758;6.106;2023-04-07T04:56:04;99091.09;;;6.83;100.00
73151;BME280;61354;50.758;6.106;2023-04-07T04:58:30;99090.16;;;6.79;100.00
73151;BME280;61354;50.758;6.106;2023-04-07T05:00:55;99089.16;;;6.83;100.00
73151;BME280;61354;50.758;6.106;2023-04-07T05:03:23;99101.63;;;6.89;100.00
73151;BME280;61354;50.758;6.106;2023-04-07T05:05:50;99104.59;;;6.84;100.00
73151;BME280;61354;50.758;6.106;2023-04-07T05:08:15;99104.91;;;6.83;100.00
73151;BME280;61354;50.758;6.106;2023-04-07T05:10:41;99106.91;;;6.73;100.00
73151;BME280;61354;50.758;6.106;2023-04-07T05:13:07;99106.06;;;6.82;100.00
73151;BME280;61354;50.758;6.106;2023-04-07T05:15:32;99114.13;;;6.87;100.00
73151;BME280;61354;50.758;6.106;2023-04-07T05:17:58;99102.00;;;6.79;100.00
73151;BME280;61354;50.758;6.106;2023-04-07T05:20:23;99100.19;;;6.83;100.00
73151;BME280;61354;50.758;6.106;2023-04-07T05:22:49;99105.91;;;6.78;100.00
73151;BME280;61354;50.758;6.106;2023-04-07T05:25:15;99104.63;;;6.76;100.00
73151;BME280;61354;50.758;6.106;2023-04-07T05:27:40;99111.78;;;6.77;100.00
73151;BME280;61354;50.758;6.106;2023-04-07T05:30:07;99106.25;;;6.77;100.00
73151;BME280;61354;50.758;6.106;2023-04-07T05:32:32;99109.97;;;6.81;100.00
73151;BME280;61354;50.758;6.106;2023-04-07T05:34:58;99110.28;;;6.79;100.00
73151;BME280;61354;50.758;6.106;2023-04-07T05:37:23;99108.81;;;6.82;100.00
73151;BME280;61354;50.758;6.106;2023-04-07T05:39:49;99105.97;;;6.69;100.00
73151;BME280;61354;50.758;6.106;2023-04-07T05:42:15;99111.81;;;6.68;100.00
73151;BME280;61354;50.758;6.106;2023-04-07T05:44:41;99117.34;;;6.68;100.00
73151;BME280;61354;50.758;6.106;2023-04-07T05:47:06;99116.03;;;6.65;100.00
73151;BME280;61354;50.758;6.106;2023-04-07T05:49:34;99116.50;;;6.67;100.00
73151;BME280;61354;50.758;6.106;2023-04-07T05:52:00;99113.28;;;6.65;100.00
73151;BME280;61354;50.758;6.106;2023-04-07T05:54:27;99121.25;;;6.58;100.00
73151;BME280;61354;50.758;6.106;2023-04-07T05:56:53;99122.06;;;6.59;100.00
73151;BME280;61354;50.758;6.106;2023-04-07T05:59:19;99125.22;;;6.48;100.00
73151;BME280;61354;50.758;6.106;2023-04-07T06:01:44;99129.28;;;6.51;100.00
73151;BME280;61354;50.758;6.106;2023-04-07T06:04:10;99135.59;;;6.52;100.00
73151;BME280;61354;50.758;6.106;2023-04-07T06:06:36;99142.91;;;6.47;100.00
73151;BME280;61354;50.758;6.106;2023-04-07T06:09:02;99141.41;;;6.50;100.00
73151;BME280;61354;50.758;6.106;2023-04-07T06:11:28;99149.22;;;6.48;100.00
73151;BME280;61354;50.758;6.106;2023-04-07T06:13:53;99151.94;;;6.57;100.00
73151;BME280;61354;50.758;6.106;2023-04-07T06:16:19;99154.09;;;6.51;100.00
73151;BME280;61354;50.758;6.106;2023-04-07T06:18:45;99158.50;;;6.43;100.00
73151;BME280;61354;50.758;6.106;2023-04-07T06:21:10;99160.75;;;6.41;100.00
73151;BME280;61354;50.758;6.106;2023-04-07T06:23:36;99160.25;;;6.48;100.00
73151;BME280;61354;50.758;6.106;2023-04-07T06:26:02;99157.16;;;6.50;100.00
73151;BME280;61354;50.758;6.106;2023-04-07T06:28:27;99166.75;;;6.52;100.00
73151;BME280;61354;50.758;6.106;2023-04-07T06:30:53;99167.59;;;6.44;100.00
73151;BME280;61354;50.758;6.106;2023-04-07T06:33:18;99166.94;;;6.47;100.00
73151;BME280;61354;50.758;6.106;2023-04-07T06:35:48;99173.09;;;6.44;100.00
73151;BME280;61354;50.758;6.106;2023-04-07T06:38:13;99173.88;;;6.53;100.00
73151;BME280;61354;50.758;6.106;2023-04-07T06:40:39;99177.31;;;6.41;100.00
73151;BME280;61354;50.758;6.106;2023-04-07T06:43:05;99172.59;;;6.42;100.00
73151;BME280;61354;50.758;6.106;2023-04-07T06:45:31;99184.59;;;6.46;100.00
73151;BME280;61354;50.758;6.106;2023-04-07T06:47:56;99186.88;;;6.44;100.00
73151;BME280;61354;50.758;6.106;2023-04-07T06:50:22;99182.66;;;6.46;100.00
73151;BME280;61354;50.758;6.106;2023-04-07T06:52:47;99184.75;;;6.50;100.00
73151;BME280;61354;50.758;6.106;2023-04-07T06:55:13;99187.47;;;6.58;100.00
73151;BME280;61354;50.758;6.106;2023-04-07T06:57:38;99189.41;;;6.66;100.00
73151;BME280;61354;50.758;6.106;2023-04-07T07:00:05;99196.25;;;6.60;100.00
73151;BME280;61354;50.758;6.106;2023-04-07T07:02:32;99196.75;;;6.54;100.00
73151;BME280;61354;50.758;6.106;2023-04-07T07:04:59;99196.25;;;6.60;100.00
73151;BME280;61354;50.758;6.106;2023-04-07T07:07:25;99203.38;;;6.61;100.00
73151;BME280;61354;50.758;6.106;2023-04-07T07:09:51;99204.34;;;6.65;100.00
73151;BME280;61354;50.758;6.106;2023-04-07T07:12:16;99207.44;;;6.55;100.00
73151;BME280;61354;50.758;6.106;2023-04-07T07:14:42;99210.34;;;6.59;100.00
73151;BME280;61354;50.758;6.106;2023-04-07T07:17:08;99208.41;;;6.59;100.00
73151;BME280;61354;50.758;6.106;2023-04-07T07:19:33;99206.91;;;6.70;100.00
73151;BME280;61354;50.758;6.106;2023-04-07T07:22:00;99214.84;;;6.81;100.00
73151;BME280;61354;50.758;6.106;2023-04-07T07:24:25;99216.50;;;6.73;100.00
73151;BME280;61354;50.758;6.106;2023-04-07T07:26:53;99222.81;;;6.73;100.00
73151;BME280;61354;50.758;6.106;2023-04-07T07:29:19;99217.94;;;6.70;100.00
73151;BME280;61354;50.758;6.106;2023-04-07T07:31:44;99223.59;;;6.83;100.00
73151;BME280;61354;50.758;6.106;2023-04-07T07:34:10;99226.16;;;6.88;100.00
73151;BME280;61354;50.758;6.106;2023-04-07T07:36:35;99228.34;;;6.73;100.00
73151;BME280;61354;50.758;6.106;2023-04-07T07:39:01;99230.72;;;6.84;100.00
73151;BME280;61354;50.758;6.106;2023-04-07T07:41:27;99234.63;;;6.83;100.00
73151;BME280;61354;50.758;6.106;2023-04-07T07:43:52;99237.06;;;6.76;100.00
73151;BME280;61354;50.758;6.106;2023-04-07T07:46:18;99234.81;;;6.78;100.00
73151;BME280;61354;50.758;6.106;2023-04-07T07:48:43;99232.56;;;6.71;100.00
73151;BME280;61354;50.758;6.106;2023-04-07T07:51:10;99234.00;;;6.77;100.00
73151;BME280;61354;50.758;6.106;2023-04-07T07:53:36;99236.28;;;6.75;100.00
73151;BME280;61354;50.758;6.106;2023-04-07T07:56:01;99236.13;;;6.71;100.00
73151;BME280;61354;50.758;6.106;2023-04-07T07:58:27;99252.97;;;6.79;100.00
73151;BME280;61354;50.758;6.106;2023-04-07T08:00:52;99247.97;;;6.81;100.00
73151;BME280;61354;50.758;6.106;2023-04-07T08:03:18;99243.69;;;6.92;100.00
73151;BME280;61354;50.758;6.106;2023-04-07T08:05:47;99249.22;;;6.83;100.00
73151;BME280;61354;50.758;6.106;2023-04-07T08:08:13;99250.19;;;6.87;100.00
73151;BME280;61354;50.758;6.106;2023-04-07T08:10:38;99255.41;;;6.89;100.00
73151;BME280;61354;50.758;6.106;2023-04-07T08:13:04;99266.59;;;6.84;100.00
73151;BME280;61354;50.758;6.106;2023-04-07T08:15:29;99265.63;;;6.80;100.00
73151;BME280;61354;50.758;6.106;2023-04-07T08:17:55;99262.25;;;6.74;100.00
73151;BME280;61354;50.758;6.106;2023-04-07T08:20:21;99264.16;;;6.91;100.00
73151;BME280;61354;50.758;6.106;2023-04-07T08:22:47;99259.44;;;6.91;100.00
73151;BME280;61354;50.758;6.106;2023-04-07T08:25:12;99260.56;;;6.90;100.00
73151;BME280;61354;50.758;6.106;2023-04-07T08:27:38;99259.78;;;6.90;100.00
73151;BME280;61354;50.758;6.106;2023-04-07T08:30:05;99270.50;;;6.83;100.00
73151;BME280;61354;50.758;6.106;2023-04-07T08:32:39;99267.06;;;6.94;100.00
73151;BME280;61354;50.758;6.106;2023-04-07T08:35:05;99258.78;;;6.94;100.00
73151;BME280;61354;50.758;6.106;2023-04-07T08:37:32;99263.47;;;7.03;100.00
73151;BME280;61354;50.758;6.106;2023-04-07T08:39:58;99265.88;;;7.04;100.00
73151;BME280;61354;50.758;6.106;2023-04-07T08:42:27;99271.75;;;7.03;100.00
73151;BME280;61354;50.758;6.106;2023-04-07T08:45:02;99270.28;;;7.05;100.00
73151;BME280;61354;50.758;6.106;2023-04-07T08:47:30;99273.53;;;6.98;100.00
73151;BME280;61354;50.758;6.106;2023-04-07T08:49:59;99269.09;;;7.15;100.00
73151;BME280;61354;50.758;6.106;2023-04-07T08:55:14;99273.53;;;6.98;100.00
73151;BME280;61354;50.758;6.106;2023-04-07T08:57:41;99286.50;;;7.07;100.00
73151;BME280;61354;50.758;6.106;2023-04-07T09:00:07;99282.75;;;7.11;100.00
73151;BME280;61354;50.758;6.106;2023-04-07T09:02:36;99285.66;;;7.15;100.00
73151;BME280;61354;50.758;6.106;2023-04-07T09:05:03;99287.31;;;7.07;100.00
73151;BME280;61354;50.758;6.106;2023-04-07T09:07:30;99290.25;;;7.02;100.00
73151;BME280;61354;50.758;6.106;2023-04-07T09:09:57;99291.13;;;7.23;100.00
73151;BME280;61354;50.758;6.106;2023-04-07T09:12:23;99293.78;;;7.11;100.00
73151;BME280;61354;50.758;6.106;2023-04-07T09:14:48;99292.00;;;7.15;100.00
73151;BME280;61354;50.758;6.106;2023-04-07T09:17:14;99297.31;;;7.20;100.00
73151;BME280;61354;50.758;6.106;2023-04-07T09:19:40;99301.28;;;7.40;100.00
73151;BME280;61354;50.758;6.106;2023-04-07T09:22:05;99302.09;;;7.41;100.00
73151;BME280;61354;50.758;6.106;2023-04-07T09:24:32;99301.81;;;7.34;100.00
73151;BME280;61354;50.758;6.106;2023-04-07T09:29:36;99308.97;;;7.35;100.00
73151;BME280;61354;50.758;6.106;2023-04-07T09:32:02;99298.34;;;7.45;100.00
73151;BME280;61354;50.758;6.106;2023-04-07T09:34:30;99300.28;;;7.45;100.00
73151;BME280;61354;50.758;6.106;2023-04-07T09:36:56;99296.13;;;7.39;100.00
73151;BME280;61354;50.758;6.106;2023-04-07T09:39:22;99300.84;;;7.30;100.00
73151;BME280;61354;50.758;6.106;2023-04-07T09:41:48;99300.94;;;7.42;100.00
73151;BME280;61354;50.758;6.106;2023-04-07T09:44:14;99300.34;;;7.36;100.00
73151;BME280;61354;50.758;6.106;2023-04-07T09:46:56;99299.38;;;7.32;100.00
73151;BME280;61354;50.758;6.106;2023-04-07T09:49:26;99299.44;;;7.53;100.00
73151;BME280;61354;50.758;6.106;2023-04-07T09:52:00;99299.06;;;7.63;100.00
73151;BME280;61354;50.758;6.106;2023-04-07T09:57:07;99300.56;;;7.82;100.00
73151;BME280;61354;50.758;6.106;2023-04-07T09:59:35;99297.75;;;7.90;100.00
73151;BME280;61354;50.758;6.106;2023-04-07T10:02:01;99297.66;;;7.99;100.00
73151;BME280;61354;50.758;6.106;2023-04-07T10:04:27;99304.47;;;7.81;100.00
73151;BME280;61354;50.758;6.106;2023-04-07T10:06:58;99294.91;;;7.99;100.00
73151;BME280;61354;50.758;6.106;2023-04-07T10:09:27;99299.34;;;7.91;100.00
73151;BME280;61354;50.758;6.106;2023-04-07T10:11:55;99294.75;;;7.75;100.00
73151;BME280;61354;50.758;6.106;2023-04-07T10:14:30;99295.97;;;7.86;100.00
73151;BME280;61354;50.758;6.106;2023-04-07T10:16:56;99289.38;;;7.99;100.00
73151;BME280;61354;50.758;6.106;2023-04-07T10:19:24;99294.63;;;7.92;99.78
73151;BME280;61354;50.758;6.106;2023-04-07T10:21:52;99296.25;;;7.93;100.00
73151;BME280;61354;50.758;6.106;2023-04-07T10:27:03;99304.63;;;8.05;98.92
73151;BME280;61354;50.758;6.106;2023-04-07T10:29:35;99305.09;;;7.86;98.77
73151;BME280;61354;50.758;6.106;2023-04-07T10:32:02;99305.03;;;7.95;99.38
73151;BME280;61354;50.758;6.106;2023-04-07T10:37:13;99307.53;;;8.09;98.03
73151;BME280;61354;50.758;6.106;2023-04-07T10:39:42;99315.13;;;7.91;95.67
73151;BME280;61354;50.758;6.106;2023-04-07T10:45:01;99310.56;;;7.95;94.84
73151;BME280;61354;50.758;6.106;2023-04-07T10:47:28;99317.66;;;8.05;95.00
73151;BME280;61354;50.758;6.106;2023-04-07T10:52:47;99318.25;;;8.10;94.63
73151;BME280;61354;50.758;6.106;2023-04-07T10:55:39;99321.75;;;8.19;94.27
73151;BME280;61354;50.758;6.106;2023-04-07T10:58:21;99318.31;;;8.22;94.03
73151;BME280;61354;50.758;6.106;2023-04-07T11:03:25;99323.38;;;8.20;94.62
73151;BME280;61354;50.758;6.106;2023-04-07T11:05:51;99324.19;;;8.21;94.39
73151;BME280;61354;50.758;6.106;2023-04-07T11:08:45;99328.13;;;8.41;96.52
73151;BME280;61354;50.758;6.106;2023-04-07T11:11:12;99326.06;;;8.38;94.89
73151;BME280;61354;50.758;6.106;2023-04-07T11:16:07;99329.31;;;8.52;96.30
73151;BME280;61354;50.758;6.106;2023-04-07T11:18:34;99329.09;;;8.57;93.98
73151;BME280;61354;50.758;6.106;2023-04-07T11:21:00;99331.03;;;8.78;94.59
73151;BME280;61354;50.758;6.106;2023-04-07T11:23:27;99328.63;;;8.76;93.85
73151;BME280;61354;50.758;6.106;2023-04-07T11:26:01;99325.50;;;8.78;94.79
73151;BME280;61354;50.758;6.106;2023-04-07T11:28:28;99327.19;;;9.03;93.21
73151;BME280;61354;50.758;6.106;2023-04-07T11:30:54;99325.13;;;9.00;92.73
73151;BME280;61354;50.758;6.106;2023-04-07T11:33:25;99335.72;;;8.98;91.55
73151;BME280;61354;50.758;6.106;2023-04-07T11:35:59;99332.16;;;8.64;90.88
73151;BME280;61354;50.758;6.106;2023-04-07T11:38:29;99326.75;;;9.13;91.07
73151;BME280;61354;50.758;6.106;2023-04-07T11:41:14;99336.25;;;9.49;90.78
73151;BME280;61354;50.758;6.106;2023-04-07T11:43:40;99340.84;;;9.45;92.48
73151;BME280;61354;50.758;6.106;2023-04-07T11:46:11;99335.66;;;9.31;89.95
73151;BME280;61354;50.758;6.106;2023-04-07T11:48:39;99338.53;;;9.23;88.44
73151;BME280;61354;50.758;6.106;2023-04-07T11:51:05;99337.16;;;9.53;90.26
73151;BME280;61354;50.758;6.106;2023-04-07T11:53:35;99335.31;;;9.45;90.29
73151;BME280;61354;50.758;6.106;2023-04-07T11:56:07;99337.63;;;9.43;90.68
73151;BME280;61354;50.758;6.106;2023-04-07T11:58:35;99344.44;;;9.21;89.97
73151;BME280;61354;50.758;6.106;2023-04-07T12:01:04;99346.72;;;9.19;90.92
73151;BME280;61354;50.758;6.106;2023-04-07T12:03:35;99349.09;;;8.96;91.15
73151;BME280;61354;50.758;6.106;2023-04-07T12:06:02;99350.09;;;8.79;92.10
73151;BME280;61354;50.758;6.106;2023-04-07T12:08:42;99350.41;;;8.78;92.83
73151;BME280;61354;50.758;6.106;2023-04-07T12:11:08;99356.63;;;8.75;92.66
73151;BME280;61354;50.758;6.106;2023-04-07T12:13:35;99359.16;;;8.67;93.44
73151;BME280;61354;50.758;6.106;2023-04-07T12:16:01;99364.25;;;8.78;94.91
73151;BME280;61354;50.758;6.106;2023-04-07T12:18:27;99372.56;;;8.78;93.01
73151;BME280;61354;50.758;6.106;2023-04-07T12:20:53;99364.47;;;8.73;92.68
73151;BME280;61354;50.758;6.106;2023-04-07T12:23:18;99367.06;;;8.90;93.92
73151;BME280;61354;50.758;6.106;2023-04-07T12:25:44;99365.88;;;8.79;91.64
73151;BME280;61354;50.758;6.106;2023-04-07T12:28:10;99371.81;;;8.89;92.43
73151;BME280;61354;50.758;6.106;2023-04-07T12:30:35;99373.69;;;8.98;92.69
73151;BME280;61354;50.758;6.106;2023-04-07T12:33:01;99367.44;;;8.88;92.19
73151;BME280;61354;50.758;6.106;2023-04-07T12:35:28;99368.31;;;8.80;93.54
73151;BME280;61354;50.758;6.106;2023-04-07T12:37:55;99371.84;;;8.68;93.01
73151;BME280;61354;50.758;6.106;2023-04-07T12:40:22;99374.06;;;8.75;93.62
73151;BME280;61354;50.758;6.106;2023-04-07T12:42:47;99377.66;;;8.76;94.84
73151;BME280;61354;50.758;6.106;2023-04-07T12:45:13;99373.81;;;8.68;95.00
73151;BME280;61354;50.758;6.106;2023-04-07T12:47:43;99372.25;;;8.58;94.83
73151;BME280;61354;50.758;6.106;2023-04-07T12:50:09;99373.66;;;8.64;95.44
73151;BME280;61354;50.758;6.106;2023-04-07T12:52:34;99374.56;;;8.56;95.23
73151;BME280;61354;50.758;6.106;2023-04-07T12:55:00;99372.56;;;8.78;95.40
73151;BME280;61354;50.758;6.106;2023-04-07T12:57:26;99372.34;;;8.83;95.23
73151;BME280;61354;50.758;6.106;2023-04-07T12:59:51;99371.31;;;9.08;94.96
73151;BME280;61354;50.758;6.106;2023-04-07T13:02:19;99372.31;;;9.04;93.33
73151;BME280;61354;50.758;6.106;2023-04-07T13:04:45;99370.91;;;8.98;92.88
73151;BME280;61354;50.758;6.106;2023-04-07T13:07:14;99369.25;;;8.84;92.93
73151;BME280;61354;50.758;6.106;2023-04-07T13:09:41;99374.72;;;8.93;93.61
73151;BME280;61354;50.758;6.106;2023-04-07T13:12:10;99383.81;;;8.93;94.91
73151;BME280;61354;50.758;6.106;2023-04-07T13:14:40;99373.06;;;8.80;94.09
73151;BME280;61354;50.758;6.106;2023-04-07T13:17:07;99384.13;;;8.80;93.03
73151;BME280;61354;50.758;6.106;2023-04-07T13:19:33;99382.34;;;8.96;94.70
73151;BME280;61354;50.758;6.106;2023-04-07T13:21:59;99385.56;;;8.98;94.00
73151;BME280;61354;50.758;6.106;2023-04-07T13:24:25;99382.34;;;8.96;93.12
73151;BME280;61354;50.758;6.106;2023-04-07T13:26:51;99388.88;;;8.91;92.84
73151;BME280;61354;50.758;6.106;2023-04-07T13:29:17;99391.41;;;8.84;92.34
73151;BME280;61354;50.758;6.106;2023-04-07T13:31:46;99382.06;;;8.89;93.17